createdAt,value
2018-11-02T00:00:18.399Z,1030.99
2018-11-02T00:01:18.362Z,1031.04
2018-11-02T00:02:18.349Z,1031.03
2018-11-02T00:03:18.333Z,1031.15
2018-11-02T00:04:18.321Z,1031.2
2018-11-02T00:05:18.315Z,1031.33
2018-11-02T00:06:18.312Z,1031.38
2018-11-02T00:07:18.290Z,1031.39
2018-11-02T00:08:18.280Z,1031.38
2018-11-02T00:09:18.269Z,1031.42
2018-11-02T00:10:18.252Z,1031.42
2018-11-02T00:11:18.249Z,1031.48
2018-11-02T00:12:18.353Z,1031.47
2018-11-02T00:13:18.222Z,1031.49
2018-11-02T00:14:18.206Z,1031.43
2018-11-02T00:15:18.199Z,1031.42
2018-11-02T00:16:18.184Z,1031.39
2018-11-02T00:17:18.175Z,1031.29
2018-11-02T00:18:18.164Z,1031.25
2018-11-02T00:19:18.177Z,1031.2
2018-11-02T00:20:18.139Z,1031.22
2018-11-02T00:21:18.127Z,1031.24
2018-11-02T00:22:18.119Z,1031.23
2018-11-02T00:23:18.103Z,1031.23
2018-11-02T00:24:18.098Z,1031.14
2018-11-02T00:25:18.081Z,1031.13
2018-11-02T00:26:18.073Z,1031.18
2018-11-02T00:27:18.058Z,1031.12
2018-11-02T00:28:18.062Z,1031.14
2018-11-02T00:29:18.035Z,1031.12
2018-11-02T00:30:18.030Z,1031.1
2018-11-02T00:31:18.019Z,1031.09
2018-11-02T00:32:18.000Z,1031.09
2018-11-02T00:33:17.993Z,1031.1
2018-11-02T00:34:17.983Z,1031.1
2018-11-02T00:35:17.966Z,1031.08
2018-11-02T00:36:17.954Z,1031.11
2018-11-02T00:37:17.944Z,1031.12
2018-11-02T00:38:17.943Z,1031.17
2018-11-02T00:39:17.919Z,1031.21
2018-11-02T00:40:17.912Z,1031.2
2018-11-02T00:41:17.897Z,1031.18
2018-11-02T00:42:17.891Z,1031.2
2018-11-02T00:43:17.873Z,1031.15
2018-11-02T00:44:17.867Z,1031.16
2018-11-02T00:45:17.850Z,1031.16
2018-11-02T00:46:17.869Z,1031.17
2018-11-02T00:47:17.831Z,1031.21
2018-11-02T00:48:17.820Z,1031.27
2018-11-02T00:49:17.805Z,1031.3
2018-11-02T00:50:17.793Z,1031.34
2018-11-02T00:51:17.786Z,1031.36
2018-11-02T00:52:17.775Z,1031.38
2018-11-02T00:53:17.764Z,1031.38
2018-11-02T00:54:17.746Z,1031.42
2018-11-02T00:55:17.738Z,1031.47
2018-11-02T00:56:17.729Z,1031.48
2018-11-02T00:57:17.712Z,1031.45
2018-11-02T00:58:17.703Z,1031.47
2018-11-02T00:59:17.743Z,1031.54
2018-11-02T01:00:17.681Z,1031.52
2018-11-02T01:01:17.665Z,1031.57
2018-11-02T01:02:17.658Z,1031.58
2018-11-02T01:03:17.645Z,1031.55
2018-11-02T01:04:17.639Z,1031.57
2018-11-02T01:05:17.617Z,1031.57
2018-11-02T01:06:17.605Z,1031.6
2018-11-02T01:07:17.598Z,1031.55
2018-11-02T01:08:17.586Z,1031.54
2018-11-02T01:09:17.576Z,1031.48
2018-11-02T01:10:17.559Z,1031.42
2018-11-02T01:11:17.551Z,1031.35
2018-11-02T01:12:17.535Z,1031.3
2018-11-02T01:13:17.527Z,1031.29
2018-11-02T01:14:17.512Z,1031.29
2018-11-02T01:15:17.506Z,1031.26
2018-11-02T01:16:17.487Z,1031.33
2018-11-02T01:17:17.484Z,1031.3
2018-11-02T01:18:17.465Z,1031.28
2018-11-02T01:19:17.453Z,1031.3
2018-11-02T01:20:17.441Z,1031.19
2018-11-02T01:21:17.435Z,1031.13
2018-11-02T01:22:17.418Z,1031.06
2018-11-02T01:23:17.410Z,1031.03
2018-11-02T01:24:17.399Z,1030.98
2018-11-02T01:25:17.390Z,1030.93
2018-11-02T01:26:17.413Z,1030.87
2018-11-02T01:27:17.365Z,1030.79
2018-11-02T01:28:17.354Z,1030.77
2018-11-02T01:29:17.345Z,1030.8
2018-11-02T01:30:17.326Z,1030.92
2018-11-02T01:31:17.319Z,1031.02
2018-11-02T01:32:17.303Z,1031.06
2018-11-02T01:33:17.296Z,1031.15
2018-11-02T01:34:17.279Z,1031.17
2018-11-02T01:35:17.273Z,1031.19
2018-11-02T01:36:17.264Z,1031.17
2018-11-02T01:37:17.247Z,1031.17
2018-11-02T01:38:17.235Z,1031.29
2018-11-02T01:39:17.229Z,1031.35
2018-11-02T01:40:17.218Z,1031.34
2018-11-02T01:41:17.207Z,1031.39
2018-11-02T01:42:17.190Z,1031.41
2018-11-02T01:43:17.183Z,1031.45
2018-11-02T01:44:17.199Z,1031.5
2018-11-02T01:45:17.160Z,1031.53
2018-11-02T01:46:17.145Z,1031.61
2018-11-02T01:47:17.140Z,1031.66
2018-11-02T01:48:17.128Z,1031.69
2018-11-02T01:49:17.111Z,1031.77
2018-11-02T01:50:17.108Z,1031.76
2018-11-02T01:51:17.094Z,1031.78
2018-11-02T01:52:17.082Z,1031.81
2018-11-02T01:53:17.066Z,1031.81
2018-11-02T01:54:17.056Z,1031.93
2018-11-02T01:55:17.048Z,1031.92
2018-11-02T01:56:17.036Z,1031.96
2018-11-02T01:57:17.024Z,1032
2018-11-02T01:58:17.009Z,1031.98
2018-11-02T01:59:17.002Z,1031.99
2018-11-02T02:00:16.987Z,1032.07
2018-11-02T02:01:16.979Z,1032.1
2018-11-02T02:02:16.965Z,1032.1
2018-11-02T02:03:16.956Z,1032.12
2018-11-02T02:04:16.941Z,1032.09
2018-11-02T02:05:16.936Z,1032.1
2018-11-02T02:06:16.918Z,1032.12
2018-11-02T02:07:16.931Z,1032.13
2018-11-02T02:08:16.894Z,1032.13
2018-11-02T02:09:16.887Z,1032.08
2018-11-02T02:10:16.877Z,1032.12
2018-11-02T02:11:16.859Z,1032.11
2018-11-02T02:12:16.852Z,1032.12
2018-11-02T02:13:16.950Z,1032.17
2018-11-02T02:14:16.823Z,1032.21
2018-11-02T02:15:16.818Z,1032.25
2018-11-02T02:16:16.801Z,1032.3
2018-11-02T02:17:16.795Z,1032.33
2018-11-02T02:18:16.776Z,1032.4
2018-11-02T02:19:16.768Z,1032.39
2018-11-02T02:20:16.755Z,1032.43
2018-11-02T02:21:16.746Z,1032.46
2018-11-02T02:22:16.730Z,1032.51
2018-11-02T02:23:16.717Z,1032.51
2018-11-02T02:24:16.706Z,1032.49
2018-11-02T02:25:16.698Z,1032.5
2018-11-02T02:26:16.751Z,1032.45
2018-11-02T02:27:16.670Z,1032.46
2018-11-02T02:28:16.682Z,1032.46
2018-11-02T02:29:16.644Z,1032.48
2018-11-02T02:30:16.648Z,1032.5
2018-11-02T02:31:16.622Z,1032.54
2018-11-02T02:32:16.614Z,1032.51
2018-11-02T02:33:16.597Z,1032.57
2018-11-02T02:34:16.590Z,1032.51
2018-11-02T02:35:16.581Z,1032.57
2018-11-02T02:36:16.566Z,1032.58
2018-11-02T02:37:16.549Z,1032.61
2018-11-02T02:38:16.542Z,1032.58
2018-11-02T02:39:16.525Z,1032.57
2018-11-02T02:40:16.516Z,1032.62
2018-11-02T02:41:16.505Z,1032.65
2018-11-02T02:42:16.495Z,1032.71
2018-11-02T02:43:16.477Z,1032.71
2018-11-02T02:44:16.464Z,1032.7
2018-11-02T02:45:16.454Z,1032.77
2018-11-02T02:46:16.444Z,1032.76
2018-11-02T02:47:16.427Z,1032.81
2018-11-02T02:48:16.419Z,1032.84
2018-11-02T02:49:16.403Z,1032.87
2018-11-02T02:50:16.397Z,1032.86
2018-11-02T02:51:16.380Z,1032.89
2018-11-02T02:52:16.370Z,1032.88
2018-11-02T02:53:16.354Z,1032.94
2018-11-02T02:54:16.347Z,1032.93
2018-11-02T02:55:16.335Z,1032.97
2018-11-02T02:56:16.323Z,1032.94
2018-11-02T02:57:16.306Z,1032.91
2018-11-02T02:58:16.292Z,1032.98
2018-11-02T02:59:16.284Z,1032.95
2018-11-02T03:00:16.297Z,1032.92
2018-11-02T03:01:16.260Z,1032.94
2018-11-02T03:02:16.246Z,1032.94
2018-11-02T03:03:16.237Z,1032.95
2018-11-02T03:04:16.223Z,1032.93
2018-11-02T03:05:16.210Z,1032.96
2018-11-02T03:06:16.199Z,1033
2018-11-02T03:07:16.182Z,1033
2018-11-02T03:08:16.175Z,1033.03
2018-11-02T03:09:16.158Z,1033.08
2018-11-02T03:10:16.175Z,1033.05
2018-11-02T03:11:16.270Z,1033.03
2018-11-02T03:12:16.128Z,1033.04
2018-11-02T03:13:16.146Z,1033.09
2018-11-02T03:14:16.096Z,1033.11
2018-11-02T03:15:16.089Z,1033.05
2018-11-02T03:16:16.079Z,1033.03
2018-11-02T03:17:16.058Z,1032.98
2018-11-02T03:18:16.050Z,1032.92
2018-11-02T03:19:16.035Z,1032.88
2018-11-02T03:20:16.025Z,1032.89
2018-11-02T03:21:16.041Z,1032.94
2018-11-02T03:22:16.072Z,1032.9
2018-11-02T03:23:15.987Z,1032.88
2018-11-02T03:24:15.975Z,1032.8
2018-11-02T03:25:15.959Z,1032.76
2018-11-02T03:26:15.953Z,1032.73
2018-11-02T03:27:15.939Z,1032.74
2018-11-02T03:28:15.930Z,1032.77
2018-11-02T03:29:15.909Z,1032.8
2018-11-02T03:30:15.903Z,1032.8
2018-11-02T03:31:15.885Z,1032.83
2018-11-02T03:32:15.883Z,1032.85
2018-11-02T03:33:15.861Z,1032.89
2018-11-02T03:34:15.853Z,1032.9
2018-11-02T03:35:15.837Z,1032.96
2018-11-02T03:36:15.829Z,1033
2018-11-02T03:37:15.814Z,1033.03
2018-11-02T03:38:15.805Z,1033.02
2018-11-02T03:39:15.825Z,1033.05
2018-11-02T03:40:15.802Z,1033.04
2018-11-02T03:41:15.769Z,1032.97
2018-11-02T03:42:15.756Z,1032.91
2018-11-02T03:43:15.746Z,1032.92
2018-11-02T03:44:15.732Z,1032.88
2018-11-02T03:45:15.714Z,1032.95
2018-11-02T03:46:15.702Z,1032.96
2018-11-02T03:47:15.693Z,1032.97
2018-11-02T03:48:15.681Z,1033.03
2018-11-02T03:49:15.668Z,1033.01
2018-11-02T03:50:15.652Z,1033.02
2018-11-02T03:51:15.647Z,1033.06
2018-11-02T03:52:15.628Z,1033.07
2018-11-02T03:53:15.620Z,1033.05
2018-11-02T03:54:15.612Z,1033.04
2018-11-02T03:55:15.607Z,1033.07
2018-11-02T03:56:15.583Z,1033.02
2018-11-02T03:57:15.566Z,1033.03
2018-11-02T03:58:15.562Z,1033.08
2018-11-02T03:59:15.554Z,1033.09
2018-11-02T04:00:15.533Z,1033.05
2018-11-02T04:01:15.524Z,1033.11
2018-11-02T04:02:15.506Z,1033.14
2018-11-02T04:03:15.501Z,1033.23
2018-11-02T04:04:15.486Z,1033.22
2018-11-02T04:05:15.476Z,1033.19
2018-11-02T04:06:15.468Z,1033.18
2018-11-02T04:07:15.448Z,1033.2
2018-11-02T04:08:15.434Z,1033.17
2018-11-02T04:09:15.431Z,1033.19
2018-11-02T04:10:15.409Z,1033.2
2018-11-02T04:11:15.403Z,1033.22
2018-11-02T04:12:15.385Z,1033.22
2018-11-02T04:13:15.379Z,1033.24
2018-11-02T04:14:15.363Z,1033.2
2018-11-02T04:15:15.348Z,1033.21
2018-11-02T04:16:15.336Z,1033.23
2018-11-02T04:17:15.328Z,1033.23
2018-11-02T04:18:15.316Z,1033.25
2018-11-02T04:19:15.299Z,1033.27
2018-11-02T04:20:15.287Z,1033.25
2018-11-02T04:21:15.280Z,1033.28
2018-11-02T04:22:15.264Z,1033.3
2018-11-02T04:23:15.257Z,1033.34
2018-11-02T04:24:15.239Z,1033.28
2018-11-02T04:25:15.233Z,1033.23
2018-11-02T04:26:15.215Z,1033.26
2018-11-02T04:27:15.207Z,1033.25
2018-11-02T04:28:15.191Z,1033.22
2018-11-02T04:29:15.182Z,1033.22
2018-11-02T04:30:15.167Z,1033.21
2018-11-02T04:31:15.155Z,1033.17
2018-11-02T04:32:15.143Z,1033.17
2018-11-02T04:33:15.137Z,1033.17
2018-11-02T04:34:15.124Z,1033.21
2018-11-02T04:35:15.142Z,1033.24
2018-11-02T04:36:15.094Z,1033.21
2018-11-02T04:37:15.082Z,1033.2
2018-11-02T04:38:15.074Z,1033.21
2018-11-02T04:39:15.064Z,1033.23
2018-11-02T04:40:15.051Z,1033.26
2018-11-02T04:41:15.058Z,1033.24
2018-11-02T04:42:15.028Z,1033.27
2018-11-02T04:43:15.011Z,1033.25
2018-11-02T04:44:15.003Z,1033.25
2018-11-02T04:45:14.992Z,1033.23
2018-11-02T04:46:14.978Z,1033.25
2018-11-02T04:47:14.962Z,1033.3
2018-11-02T04:48:14.950Z,1033.27
2018-11-02T04:49:14.945Z,1033.32
2018-11-02T04:50:14.930Z,1033.32
2018-11-02T04:51:14.965Z,1033.3
2018-11-02T04:52:14.902Z,1033.32
2018-11-02T04:53:14.890Z,1033.34
2018-11-02T04:54:14.884Z,1033.36
2018-11-02T04:55:14.866Z,1033.4
2018-11-02T04:56:14.860Z,1033.45
2018-11-02T04:57:14.842Z,1033.45
2018-11-02T04:58:14.836Z,1033.58
2018-11-02T04:59:14.818Z,1033.58
2018-11-02T05:00:14.811Z,1033.63
2018-11-02T05:01:14.795Z,1033.62
2018-11-02T05:02:14.785Z,1033.63
2018-11-02T05:03:14.773Z,1033.65
2018-11-02T05:04:14.763Z,1033.65
2018-11-02T05:05:14.749Z,1033.68
2018-11-02T05:06:14.733Z,1033.68
2018-11-02T05:07:14.727Z,1033.67
2018-11-02T05:08:14.715Z,1033.71
2018-11-02T05:09:14.704Z,1033.75
2018-11-02T05:10:14.686Z,1033.73
2018-11-02T05:11:14.706Z,1033.76
2018-11-02T05:12:14.667Z,1033.79
2018-11-02T05:13:14.650Z,1033.76
2018-11-02T05:14:14.642Z,1033.78
2018-11-02T05:15:14.626Z,1033.75
2018-11-02T05:16:14.617Z,1033.77
2018-11-02T05:17:14.601Z,1033.8
2018-11-02T05:18:14.594Z,1033.83
2018-11-02T05:19:14.581Z,1033.83
2018-11-02T05:20:14.569Z,1033.87
2018-11-02T05:21:14.638Z,1033.88
2018-11-02T05:22:14.540Z,1033.9
2018-11-02T05:23:14.533Z,1033.93
2018-11-02T05:24:14.520Z,1033.96
2018-11-02T05:25:14.509Z,1033.96
2018-11-02T05:26:14.492Z,1034.02
2018-11-02T05:27:14.485Z,1033.98
2018-11-02T05:28:14.469Z,1033.98
2018-11-02T05:29:14.459Z,1033.96
2018-11-02T05:30:14.443Z,1033.96
2018-11-02T05:31:14.435Z,1033.92
2018-11-02T05:32:14.418Z,1033.95
2018-11-02T05:33:14.411Z,1033.97
2018-11-02T05:34:14.394Z,1033.97
2018-11-02T05:35:14.382Z,1034.04
2018-11-02T05:36:14.369Z,1034.06
2018-11-02T05:37:14.362Z,1034.06
2018-11-02T05:38:14.346Z,1034.06
2018-11-02T05:39:14.396Z,1034.08
2018-11-02T05:40:14.325Z,1034.11
2018-11-02T05:41:14.318Z,1034.07
2018-11-02T05:42:14.297Z,1034.07
2018-11-02T05:43:14.290Z,1034.08
2018-11-02T05:44:14.272Z,1034.15
2018-11-02T05:45:14.265Z,1034.16
2018-11-02T05:46:14.247Z,1034.2
2018-11-02T05:47:14.423Z,1034.21
2018-11-02T05:48:14.227Z,1034.23
2018-11-02T05:49:14.215Z,1034.26
2018-11-02T05:50:14.198Z,1034.3
2018-11-02T05:51:14.187Z,1034.33
2018-11-02T05:52:14.177Z,1034.35
2018-11-02T05:53:14.170Z,1034.35
2018-11-02T05:54:14.259Z,1034.37
2018-11-02T05:55:14.137Z,1034.39
2018-11-02T05:56:14.126Z,1034.43
2018-11-02T05:57:14.112Z,1034.45
2018-11-02T05:58:14.106Z,1034.46
2018-11-02T05:59:14.089Z,1034.49
2018-11-02T06:00:14.081Z,1034.55
2018-11-02T06:01:14.064Z,1034.58
2018-11-02T06:02:14.055Z,1034.62
2018-11-02T06:03:14.039Z,1034.55
2018-11-02T06:04:14.027Z,1034.6
2018-11-02T06:05:14.019Z,1034.67
2018-11-02T06:06:14.002Z,1034.67
2018-11-02T06:07:13.990Z,1034.69
2018-11-02T06:08:13.976Z,1034.67
2018-11-02T06:09:13.969Z,1034.7
2018-11-02T06:10:13.958Z,1034.69
2018-11-02T06:11:13.940Z,1034.68
2018-11-02T06:12:13.929Z,1034.71
2018-11-02T06:13:13.915Z,1034.66
2018-11-02T06:14:13.907Z,1034.68
2018-11-02T06:15:13.893Z,1034.69
2018-11-02T06:16:13.884Z,1034.68
2018-11-02T06:17:13.877Z,1034.71
2018-11-02T06:18:13.860Z,1034.77
2018-11-02T06:19:13.841Z,1034.79
2018-11-02T06:20:13.835Z,1034.82
2018-11-02T06:21:13.817Z,1034.82
2018-11-02T06:22:13.809Z,1034.87
2018-11-02T06:23:13.797Z,1034.92
2018-11-02T06:24:13.843Z,1034.9
2018-11-02T06:25:13.768Z,1034.95
2018-11-02T06:26:13.756Z,1034.96
2018-11-02T06:27:13.746Z,1034.93
2018-11-02T06:28:13.735Z,1034.98
2018-11-02T06:29:13.720Z,1035.02
2018-11-02T06:30:13.726Z,1035.09
2018-11-02T06:31:13.693Z,1035.15
2018-11-02T06:32:13.686Z,1035.15
2018-11-02T06:33:13.669Z,1035.12
2018-11-02T06:34:13.662Z,1035.12
2018-11-02T06:35:13.644Z,1035.1
2018-11-02T06:36:13.638Z,1035.08
2018-11-02T06:37:13.638Z,1035.03
2018-11-02T06:38:13.612Z,1035.01
2018-11-02T06:39:13.599Z,1035.04
2018-11-02T06:40:13.588Z,1035.1
2018-11-02T06:41:13.571Z,1035.05
2018-11-02T06:42:13.563Z,1035.01
2018-11-02T06:43:13.546Z,1035.03
2018-11-02T06:44:13.535Z,1035.03
2018-11-02T06:45:13.556Z,1034.96
2018-11-02T06:46:13.516Z,1034.92
2018-11-02T06:47:13.499Z,1034.91
2018-11-02T06:48:13.492Z,1034.91
2018-11-02T06:49:13.474Z,1034.87
2018-11-02T06:50:13.466Z,1034.85
2018-11-02T06:51:13.451Z,1034.85
2018-11-02T06:52:13.442Z,1034.83
2018-11-02T06:53:13.426Z,1034.85
2018-11-02T06:54:13.424Z,1034.84
2018-11-02T06:55:13.401Z,1034.82
2018-11-02T06:56:13.389Z,1034.81
2018-11-02T06:57:13.382Z,1034.7
2018-11-02T06:58:13.371Z,1034.69
2018-11-02T06:59:13.467Z,1034.55
2018-11-02T07:00:13.395Z,1034.36
2018-11-02T07:01:13.331Z,1034.18
2018-11-02T07:02:13.324Z,1033.95
2018-11-02T07:03:13.307Z,1033.76
2018-11-02T07:04:13.300Z,1033.69
2018-11-02T07:05:13.285Z,1033.51
2018-11-02T07:06:13.277Z,1033.41
2018-11-02T07:07:13.408Z,1033.24
2018-11-02T07:08:13.287Z,1033.21
2018-11-02T07:09:13.241Z,1033.12
2018-11-02T07:10:13.233Z,1033.06
2018-11-02T07:11:13.222Z,1033.01
2018-11-02T07:12:13.211Z,1033.02
2018-11-02T07:13:13.196Z,1033.06
2018-11-02T07:14:13.190Z,1033.14
2018-11-02T07:15:13.178Z,1033.28
2018-11-02T07:16:13.172Z,1033.41
2018-11-02T07:17:13.158Z,1033.48
2018-11-02T07:18:13.143Z,1033.56
2018-11-02T07:19:13.139Z,1033.65
2018-11-02T07:20:13.127Z,1033.7
2018-11-02T07:21:13.112Z,1033.8
2018-11-02T07:22:13.105Z,1033.89
2018-11-02T07:23:13.091Z,1033.89
2018-11-02T07:24:13.086Z,1033.95
2018-11-02T07:25:13.164Z,1034.05
2018-11-02T07:26:13.065Z,1034.03
2018-11-02T07:27:13.059Z,1034.08
2018-11-02T07:28:13.047Z,1034.09
2018-11-02T07:29:13.030Z,1034.13
2018-11-02T07:30:13.021Z,1034.12
2018-11-02T07:31:13.015Z,1034.15
2018-11-02T07:32:13.004Z,1034.16
2018-11-02T07:33:12.995Z,1034.21
2018-11-02T07:34:12.998Z,1034.27
2018-11-02T07:35:12.974Z,1034.28
2018-11-02T07:36:12.959Z,1034.27
2018-11-02T07:37:12.953Z,1034.25
2018-11-02T07:38:12.959Z,1034.25
2018-11-02T07:39:12.933Z,1034.24
2018-11-02T07:40:12.919Z,1034.19
2018-11-02T07:41:12.954Z,1034.21
2018-11-02T07:42:12.926Z,1034.16
2018-11-02T07:43:12.889Z,1034.24
2018-11-02T07:44:12.878Z,1034.25
2018-11-02T07:45:12.878Z,1034.31
2018-11-02T07:46:12.858Z,1034.36
2018-11-02T07:47:12.973Z,1034.38
2018-11-02T07:48:12.842Z,1034.39
2018-11-02T07:49:12.832Z,1034.42
2018-11-02T07:50:12.817Z,1034.44
2018-11-02T07:51:12.811Z,1034.49
2018-11-02T07:52:12.797Z,1034.48
2018-11-02T07:53:12.793Z,1034.46
2018-11-02T07:54:12.776Z,1034.49
2018-11-02T07:55:12.771Z,1034.52
2018-11-02T07:56:12.756Z,1034.54
2018-11-02T07:57:12.751Z,1034.48
2018-11-02T07:58:12.736Z,1034.49
2018-11-02T07:59:12.726Z,1034.49
2018-11-02T08:00:12.717Z,1034.47
2018-11-02T08:01:12.710Z,1034.46
2018-11-02T08:02:12.702Z,1034.42
2018-11-02T08:03:12.686Z,1034.38
2018-11-02T08:04:12.678Z,1034.39
2018-11-02T08:05:12.667Z,1034.3
2018-11-02T08:06:12.660Z,1034.29
2018-11-02T08:07:12.646Z,1034.28
2018-11-02T08:08:12.641Z,1034.26
2018-11-02T08:09:12.626Z,1034.25
2018-11-02T08:10:12.621Z,1034.25
2018-11-02T08:11:12.657Z,1034.21
2018-11-02T08:12:12.597Z,1034.22
2018-11-02T08:13:12.592Z,1034.2
2018-11-02T08:14:12.579Z,1034.22
2018-11-02T08:15:12.568Z,1034.25
2018-11-02T08:16:12.558Z,1034.23
2018-11-02T08:17:12.554Z,1034.16
2018-11-02T08:18:12.545Z,1034.1
2018-11-02T08:19:12.529Z,1034.08
2018-11-02T08:20:12.522Z,1034.07
2018-11-02T08:21:12.511Z,1034.06
2018-11-02T08:22:12.506Z,1034.05
2018-11-02T08:23:12.492Z,1033.97
2018-11-02T08:24:12.483Z,1034
2018-11-02T08:25:12.478Z,1033.97
2018-11-02T08:26:12.466Z,1033.99
2018-11-02T08:27:12.458Z,1033.98
2018-11-02T08:28:12.448Z,1033.98
2018-11-02T08:29:12.442Z,1034.01
2018-11-02T08:30:12.427Z,1034.02
2018-11-02T08:31:12.418Z,1034.03
2018-11-02T08:32:12.437Z,1034.04
2018-11-02T08:33:12.404Z,1034.07
2018-11-02T08:34:12.395Z,1034.04
2018-11-02T08:35:12.381Z,1034.06
2018-11-02T08:36:12.372Z,1034.06
2018-11-02T08:37:12.368Z,1034.06
2018-11-02T08:38:12.354Z,1034.06
2018-11-02T08:39:12.353Z,1034.02
2018-11-02T08:40:12.336Z,1034.08
2018-11-02T08:41:12.331Z,1033.9
2018-11-02T08:42:12.318Z,1033.92
2018-11-02T08:43:12.313Z,1033.84
2018-11-02T08:44:12.301Z,1033.83
2018-11-02T08:45:12.296Z,1033.66
2018-11-02T08:46:12.283Z,1033.48
2018-11-02T08:47:12.278Z,1033.41
2018-11-02T08:48:12.267Z,1033.3
2018-11-02T08:49:12.265Z,1033.16
2018-11-02T08:50:12.253Z,1032.98
2018-11-02T08:51:12.242Z,1032.87
2018-11-02T08:52:12.236Z,1032.77
2018-11-02T08:53:12.224Z,1032.71
2018-11-02T08:54:12.221Z,1032.71
2018-11-02T08:55:12.217Z,1032.67
2018-11-02T08:56:12.208Z,1032.66
2018-11-02T08:57:12.193Z,1032.71
2018-11-02T08:58:12.256Z,1032.68
2018-11-02T08:59:12.330Z,1032.66
2018-11-02T09:00:12.257Z,1032.67
2018-11-02T09:01:12.162Z,1032.68
2018-11-02T09:02:12.160Z,1032.69
2018-11-02T09:03:12.150Z,1032.72
2018-11-02T09:04:12.141Z,1032.76
2018-11-02T09:05:12.247Z,1032.8
2018-11-02T09:06:12.130Z,1032.83
2018-11-02T09:07:12.117Z,1032.86
2018-11-02T09:08:12.111Z,1032.9
2018-11-02T09:09:12.104Z,1032.86
2018-11-02T09:10:12.102Z,1032.84
2018-11-02T09:11:12.090Z,1032.9
2018-11-02T09:12:12.151Z,1032.86
2018-11-02T09:13:12.078Z,1032.86
2018-11-02T09:14:12.072Z,1032.86
2018-11-02T09:15:12.062Z,1032.88
2018-11-02T09:16:12.059Z,1032.93
2018-11-02T09:17:12.049Z,1032.93
2018-11-02T09:18:12.045Z,1032.93
2018-11-02T09:19:12.089Z,1032.9
2018-11-02T09:20:12.054Z,1032.92
2018-11-02T09:21:12.021Z,1032.87
2018-11-02T09:22:12.014Z,1032.89
2018-11-02T09:23:12.011Z,1032.88
2018-11-02T09:24:12.005Z,1032.88
2018-11-02T09:25:11.997Z,1032.87
2018-11-02T09:26:11.987Z,1032.87
2018-11-02T09:27:11.992Z,1032.87
2018-11-02T09:28:12.074Z,1032.85
2018-11-02T09:29:11.967Z,1032.82
2018-11-02T09:30:11.964Z,1032.77
2018-11-02T09:31:11.955Z,1032.74
2018-11-02T09:32:11.952Z,1032.63
2018-11-02T09:33:11.949Z,1032.55
2018-11-02T09:34:11.941Z,1032.47
2018-11-02T09:35:11.939Z,1032.35
2018-11-02T09:36:11.926Z,1032.23
2018-11-02T09:37:11.916Z,1032.18
2018-11-02T09:38:11.910Z,1032.11
2018-11-02T09:39:11.909Z,1032.06
2018-11-02T09:40:11.908Z,1032.07
2018-11-02T09:41:11.896Z,1032.06
2018-11-02T09:42:11.886Z,1032.07
2018-11-02T09:43:11.885Z,1032.01
2018-11-02T09:44:11.875Z,1031.97
2018-11-02T09:45:11.876Z,1031.94
2018-11-02T09:46:11.881Z,1031.87
2018-11-02T09:47:11.862Z,1031.87
2018-11-02T09:48:11.853Z,1031.78
2018-11-02T09:49:11.852Z,1031.71
2018-11-02T09:50:11.843Z,1031.71
2018-11-02T09:51:11.859Z,1031.7
2018-11-02T09:52:12.028Z,1031.75
2018-11-02T09:53:11.831Z,1031.72
2018-11-02T09:54:11.822Z,1031.65
2018-11-02T09:55:11.821Z,1031.57
2018-11-02T09:56:11.817Z,1031.57
2018-11-02T09:57:11.812Z,1031.55
2018-11-02T09:58:11.802Z,1031.52
2018-11-02T09:59:11.802Z,1031.58
2018-11-02T10:00:11.793Z,1031.56
2018-11-02T10:01:11.792Z,1031.52
2018-11-02T10:02:11.923Z,1031.59
2018-11-02T10:03:11.783Z,1031.62
2018-11-02T10:04:11.774Z,1031.65
2018-11-02T10:05:11.777Z,1031.62
2018-11-02T10:06:11.764Z,1031.64
2018-11-02T10:07:11.764Z,1031.65
2018-11-02T10:08:11.773Z,1031.67
2018-11-02T10:09:11.878Z,1031.71
2018-11-02T10:10:11.749Z,1031.8
2018-11-02T10:11:11.745Z,1031.82
2018-11-02T10:12:11.741Z,1031.82
2018-11-02T10:13:11.742Z,1031.83
2018-11-02T10:14:11.727Z,1031.81
2018-11-02T10:15:11.728Z,1031.84
2018-11-02T10:16:11.717Z,1031.85
2018-11-02T10:17:11.716Z,1031.87
2018-11-02T10:18:11.708Z,1031.87
2018-11-02T10:19:11.707Z,1031.89
2018-11-02T10:20:11.703Z,1031.92
2018-11-02T10:21:11.694Z,1031.87
2018-11-02T10:22:11.693Z,1031.99
2018-11-02T10:23:11.689Z,1032
2018-11-02T10:24:11.683Z,1031.99
2018-11-02T10:25:11.675Z,1032
2018-11-02T10:26:11.671Z,1031.97
2018-11-02T10:27:11.669Z,1032.01
2018-11-02T10:28:11.733Z,1032.03
2018-11-02T10:29:11.660Z,1032.03
2018-11-02T10:30:11.652Z,1032.02
2018-11-02T10:31:11.650Z,1032.1
2018-11-02T10:32:11.641Z,1032.16
2018-11-02T10:33:11.641Z,1032.18
2018-11-02T10:34:11.632Z,1032.21
2018-11-02T10:35:11.712Z,1032.22
2018-11-02T10:36:11.787Z,1032.29
2018-11-02T10:37:11.621Z,1032.36
2018-11-02T10:38:11.616Z,1032.33
2018-11-02T10:39:11.607Z,1032.24
2018-11-02T10:40:11.602Z,1032.13
2018-11-02T10:41:11.602Z,1032.11
2018-11-02T10:42:11.595Z,1032.13
2018-11-02T10:43:11.588Z,1032.13
2018-11-02T10:44:11.639Z,1032.17
2018-11-02T10:45:11.582Z,1032.23
2018-11-02T10:46:11.571Z,1032.17
2018-11-02T10:47:11.571Z,1032.2
2018-11-02T10:48:11.562Z,1032.15
2018-11-02T10:49:11.579Z,1032.06
2018-11-02T10:50:11.554Z,1031.99
2018-11-02T10:51:11.623Z,1031.98
2018-11-02T10:52:11.543Z,1032.03
2018-11-02T10:53:11.542Z,1031.97
2018-11-02T10:54:11.533Z,1032.04
2018-11-02T10:55:11.527Z,1032.07
2018-11-02T10:56:11.524Z,1032.12
2018-11-02T10:57:11.525Z,1032.18
2018-11-02T10:58:11.516Z,1032.24
2018-11-02T10:59:11.508Z,1032.28
2018-11-02T11:00:11.503Z,1032.25
2018-11-02T11:01:11.571Z,1032.31
2018-11-02T11:02:11.497Z,1032.33
2018-11-02T11:03:11.488Z,1032.38
2018-11-02T11:04:11.487Z,1032.42
2018-11-02T11:05:11.492Z,1032.34
2018-11-02T11:06:11.479Z,1032.36
2018-11-02T11:07:11.469Z,1032.31
2018-11-02T11:08:11.467Z,1032.23
2018-11-02T11:09:11.459Z,1032.23
2018-11-02T11:10:11.459Z,1032.27
2018-11-02T11:11:11.448Z,1032.25
2018-11-02T11:12:11.625Z,1032.29
2018-11-02T11:13:11.871Z,1032.33
2018-11-02T11:14:11.441Z,1032.36
2018-11-02T11:15:11.430Z,1032.4
2018-11-02T11:16:11.425Z,1032.45
2018-11-02T11:17:11.422Z,1032.48
2018-11-02T11:18:11.420Z,1032.45
2018-11-02T11:19:11.411Z,1032.44
2018-11-02T11:20:11.411Z,1032.42
2018-11-02T11:21:11.474Z,1032.42
2018-11-02T11:22:11.400Z,1032.4
2018-11-02T11:23:11.391Z,1032.38
2018-11-02T11:24:11.391Z,1032.4
2018-11-02T11:25:11.384Z,1032.38
2018-11-02T11:26:11.384Z,1032.36
2018-11-02T11:27:11.377Z,1032.36
2018-11-02T11:28:11.372Z,1032.36
2018-11-02T11:29:11.406Z,1032.4
2018-11-02T11:30:11.359Z,1032.51
2018-11-02T11:31:11.358Z,1032.52
2018-11-02T11:32:11.354Z,1032.49
2018-11-02T11:33:11.405Z,1032.58
2018-11-02T11:34:11.340Z,1032.62
2018-11-02T11:35:11.339Z,1032.65
2018-11-02T11:36:11.335Z,1032.68
2018-11-02T11:37:11.325Z,1032.67
2018-11-02T11:38:11.324Z,1032.66
2018-11-02T11:39:11.316Z,1032.61
2018-11-02T11:40:11.315Z,1032.54
2018-11-02T11:41:11.306Z,1032.52
2018-11-02T11:42:11.306Z,1032.57
2018-11-02T11:43:11.303Z,1032.6
2018-11-02T11:44:11.296Z,1032.64
2018-11-02T11:45:11.288Z,1032.69
2018-11-02T11:46:11.282Z,1032.72
2018-11-02T11:47:11.282Z,1032.75
2018-11-02T11:48:11.279Z,1032.77
2018-11-02T11:49:11.480Z,1032.83
2018-11-02T11:50:11.272Z,1032.85
2018-11-02T11:51:11.262Z,1032.92
2018-11-02T11:52:11.252Z,1032.93
2018-11-02T11:53:11.252Z,1032.95
2018-11-02T11:54:11.243Z,1033.04
2018-11-02T11:55:11.243Z,1032.98
2018-11-02T11:56:11.232Z,1033.01
2018-11-02T11:57:11.232Z,1033.05
2018-11-02T11:58:11.223Z,1033.09
2018-11-02T11:59:11.217Z,1033.11
2018-11-02T12:00:11.212Z,1033.14
2018-11-02T12:01:11.212Z,1033.22
2018-11-02T12:02:11.262Z,1033.27
2018-11-02T12:03:11.204Z,1033.35
2018-11-02T12:04:11.224Z,1033.44
2018-11-02T12:05:11.191Z,1033.39
2018-11-02T12:06:11.180Z,1033.37
2018-11-02T12:07:11.181Z,1033.38
2018-11-02T12:08:11.170Z,1033.38